sensor_id;sensor_type;location;lat;lon;timestamp;P1;durP1;ratioP1;P2;durP2;ratioP2
61704;SDS011;47627;48.078;11.522;2023-05-20T07:00:46;20.48;;;15.13;;
61704;SDS011;47627;48.078;11.522;2023-05-20T07:03:13;16.83;;;14.48;;
61704;SDS011;47627;48.078;11.522;2023-05-20T07:51:08;15.35;;;12.15;;
61704;SDS011;47627;48.078;11.522;2023-05-20T07:53:35;13.57;;;11.57;;
61704;SDS011;47627;48.078;11.522;2023-05-20T07:56:00;15.45;;;12.32;;
61704;SDS011;47627;48.078;11.522;2023-05-20T07:58:27;17.92;;;13.30;;
61704;SDS011;47627;48.078;11.522;2023-05-20T08:03:34;13.30;;;10.68;;
61704;SDS011;47627;48.078;11.522;2023-05-20T08:06:08;12.90;;;10.70;;
61704;SDS011;47627;48.078;11.522;2023-05-20T08:08:33;13.27;;;10.15;;
61704;SDS011;47627;48.078;11.522;2023-05-20T08:24:36;12.43;;;10.70;;
61704;SDS011;47627;48.078;11.522;2023-05-20T08:27:01;13.18;;;11.68;;
61704;SDS011;47627;48.078;11.522;2023-05-20T08:29:27;14.13;;;11.23;;
61704;SDS011;47627;48.078;11.522;2023-05-20T08:58:51;12.25;;;10.02;;
61704;SDS011;47627;48.078;11.522;2023-05-20T09:01:17;13.02;;;9.77;;
61704;SDS011;47627;48.078;11.522;2023-05-20T09:03:42;13.50;;;10.38;;
61704;SDS011;47627;48.078;11.522;2023-05-20T09:06:08;10.65;;;9.10;;
61704;SDS011;47627;48.078;11.522;2023-05-20T09:08:34;12.15;;;8.90;;
61704;SDS011;47627;48.078;11.522;2023-05-20T09:10:59;8.93;;;8.00;;
61704;SDS011;47627;48.078;11.522;2023-05-20T09:13:25;11.95;;;8.75;;
61704;SDS011;47627;48.078;11.522;2023-05-20T09:15:51;9.60;;;8.60;;
61704;SDS011;47627;48.078;11.522;2023-05-20T09:18:16;8.45;;;7.47;;
61704;SDS011;47627;48.078;11.522;2023-05-20T09:20:41;7.18;;;6.30;;
61704;SDS011;47627;48.078;11.522;2023-05-20T09:23:07;9.63;;;7.25;;
61704;SDS011;47627;48.078;11.522;2023-05-20T09:25:34;7.68;;;6.90;;
61704;SDS011;47627;48.078;11.522;2023-05-20T09:28:00;7.70;;;6.90;;
61704;SDS011;47627;48.078;11.522;2023-05-20T09:43:56;5.80;;;5.25;;
61704;SDS011;47627;48.078;11.522;2023-05-20T09:46:21;6.07;;;4.78;;
61704;SDS011;47627;48.078;11.522;2023-05-20T09:48:47;6.07;;;5.47;;
61704;SDS011;47627;48.078;11.522;2023-05-20T10:02:00;6.07;;;5.47;;
61704;SDS011;47627;48.078;11.522;2023-05-20T10:04:25;5.75;;;5.15;;
61704;SDS011;47627;48.078;11.522;2023-05-20T10:07:01;5.43;;;4.68;;
61704;SDS011;47627;48.078;11.522;2023-05-20T10:09:36;4.78;;;4.38;;
61704;SDS011;47627;48.078;11.522;2023-05-20T10:14:57;4.93;;;4.22;;
61704;SDS011;47627;48.078;11.522;2023-05-20T10:17:46;5.80;;;4.13;;
61704;SDS011;47627;48.078;11.522;2023-05-20T10:20:12;4.47;;;4.00;;
61704;SDS011;47627;48.078;11.522;2023-05-20T10:22:37;4.63;;;3.80;;
61704;SDS011;47627;48.078;11.522;2023-05-20T10:25:08;4.97;;;3.50;;
61704;SDS011;47627;48.078;11.522;2023-05-20T10:27:46;5.72;;;4.13;;
61704;SDS011;47627;48.078;11.522;2023-05-20T10:30:15;3.67;;;3.38;;
61704;SDS011;47627;48.078;11.522;2023-05-20T10:32:47;4.28;;;3.50;;
61704;SDS011;47627;48.078;11.522;2023-05-20T10:35:19;4.28;;;3.88;;
61704;SDS011;47627;48.078;11.522;2023-05-20T10:37:45;5.80;;;3.38;;
61704;SDS011;47627;48.078;11.522;2023-05-20T10:40:12;4.60;;;3.60;;
61704;SDS011;47627;48.078;11.522;2023-05-20T10:42:38;4.28;;;3.35;;
61704;SDS011;47627;48.078;11.522;2023-05-20T10:45:03;4.20;;;3.50;;
61704;SDS011;47627;48.078;11.522;2023-05-20T10:47:29;3.78;;;3.38;;
61704;SDS011;47627;48.078;11.522;2023-05-20T10:49:55;2.90;;;2.67;;
61704;SDS011;47627;48.078;11.522;2023-05-20T11:32:56;3.80;;;3.40;;
61704;SDS011;47627;48.078;11.522;2023-05-20T11:35:23;5.15;;;2.95;;
61704;SDS011;47627;48.078;11.522;2023-05-20T11:37:55;3.80;;;3.03;;
61704;SDS011;47627;48.078;11.522;2023-05-20T11:43:06;2.55;;;2.35;;
61704;SDS011;47627;48.078;11.522;2023-05-20T11:45:41;5.72;;;2.90;;
61704;SDS011;47627;48.078;11.522;2023-05-20T11:48:06;3.33;;;2.80;;
61704;SDS011;47627;48.078;11.522;2023-05-20T11:53:18;2.42;;;2.22;;
61704;SDS011;47627;48.078;11.522;2023-05-20T11:55:44;2.58;;;2.25;;
61704;SDS011;47627;48.078;11.522;2023-05-20T11:58:10;2.67;;;2.47;;
61704;SDS011;47627;48.078;11.522;2023-05-20T12:03:22;2.20;;;2.00;;
61704;SDS011;47627;48.078;11.522;2023-05-20T12:05:47;2.75;;;2.55;;
61704;SDS011;47627;48.078;11.522;2023-05-20T12:08:13;2.75;;;2.28;;
61704;SDS011;47627;48.078;11.522;2023-05-20T12:16:02;4.18;;;2.63;;
61704;SDS011;47627;48.078;11.522;2023-05-20T12:18:29;3.08;;;2.20;;
61704;SDS011;47627;48.078;11.522;2023-05-20T12:20:54;3.05;;;2.75;;
61704;SDS011;47627;48.078;11.522;2023-05-20T12:23:20;3.10;;;2.60;;
61704;SDS011;47627;48.078;11.522;2023-05-20T12:25:45;2.55;;;2.22;;
61704;SDS011;47627;48.078;11.522;2023-05-20T12:28:13;3.10;;;2.72;;
61704;SDS011;47627;48.078;11.522;2023-05-20T12:33:20;3.45;;;2.50;;
61704;SDS011;47627;48.078;11.522;2023-05-20T12:35:45;6.30;;;2.93;;
61704;SDS011;47627;48.078;11.522;2023-05-20T12:38:10;3.50;;;3.20;;
61704;SDS011;47627;48.078;11.522;2023-05-20T13:21:10;6.03;;;3.88;;
61704;SDS011;47627;48.078;11.522;2023-05-20T13:23:36;5.13;;;3.97;;
61704;SDS011;47627;48.078;11.522;2023-05-20T13:26:01;4.47;;;3.70;;
61704;SDS011;47627;48.078;11.522;2023-05-20T13:28:27;5.38;;;4.88;;
61704;SDS011;47627;48.078;11.522;2023-05-20T13:30:52;6.50;;;5.07;;
61704;SDS011;47627;48.078;11.522;2023-05-20T13:33:17;7.13;;;5.03;;
61704;SDS011;47627;48.078;11.522;2023-05-20T13:35:43;10.35;;;4.82;;
61704;SDS011;47627;48.078;11.522;2023-05-20T13:38:08;6.30;;;5.30;;
61704;SDS011;47627;48.078;11.522;2023-05-20T13:40:34;6.47;;;4.97;;
61704;SDS011;47627;48.078;11.522;2023-05-20T13:42:59;5.35;;;4.78;;
61704;SDS011;47627;48.078;11.522;2023-05-20T13:45:25;7.35;;;5.05;;
61704;SDS011;47627;48.078;11.522;2023-05-20T13:47:50;7.07;;;5.38;;
61704;SDS011;47627;48.078;11.522;2023-05-20T13:50:15;6.10;;;5.28;;
61704;SDS011;47627;48.078;11.522;2023-05-20T13:52:41;8.82;;;5.15;;
61704;SDS011;47627;48.078;11.522;2023-05-20T13:55:06;7.32;;;5.82;;
61704;SDS011;47627;48.078;11.522;2023-05-20T13:57:31;6.68;;;6.00;;
61704;SDS011;47627;48.078;11.522;2023-05-20T13:59:57;6.90;;;6.20;;
61704;SDS011;47627;48.078;11.522;2023-05-20T14:02:22;8.52;;;5.75;;
61704;SDS011;47627;48.078;11.522;2023-05-20T14:04:47;8.10;;;5.60;;
61704;SDS011;47627;48.078;11.522;2023-05-20T14:07:13;6.93;;;5.65;;
61704;SDS011;47627;48.078;11.522;2023-05-20T14:09:38;7.93;;;5.35;;
61704;SDS011;47627;48.078;11.522;2023-05-20T14:12:04;10.23;;;6.30;;
61704;SDS011;47627;48.078;11.522;2023-05-20T14:14:29;7.15;;;5.47;;
61704;SDS011;47627;48.078;11.522;2023-05-20T14:16:55;7.65;;;5.68;;
61704;SDS011;47627;48.078;11.522;2023-05-20T14:19:20;6.55;;;5.72;;
61704;SDS011;47627;48.078;11.522;2023-05-20T14:21:45;5.97;;;5.47;;
61704;SDS011;47627;48.078;11.522;2023-05-20T14:24:10;6.65;;;5.63;;
61704;SDS011;47627;48.078;11.522;2023-05-20T14:26:36;7.25;;;6.32;;
61704;SDS011;47627;48.078;11.522;2023-05-20T14:29:01;6.10;;;5.30;;
61704;SDS011;47627;48.078;11.522;2023-05-20T14:31:27;6.40;;;5.50;;
61704;SDS011;47627;48.078;11.522;2023-05-20T14:33:52;8.20;;;5.75;;
61704;SDS011;47627;48.078;11.522;2023-05-20T14:36:17;7.35;;;6.47;;
61704;SDS011;47627;48.078;11.522;2023-05-20T14:38:42;7.82;;;6.40;;
61704;SDS011;47627;48.078;11.522;2023-05-20T14:41:08;7.00;;;5.82;;
61704;SDS011;47627;48.078;11.522;2023-05-20T14:43:33;7.90;;;6.10;;
61704;SDS011;47627;48.078;11.522;2023-05-20T14:45:58;7.82;;;6.40;;
61704;SDS011;47627;48.078;11.522;2023-05-20T14:48:24;7.43;;;6.05;;
61704;SDS011;47627;48.078;11.522;2023-05-20T14:50:49;7.63;;;6.22;;
61704;SDS011;47627;48.078;11.522;2023-05-20T14:53:15;8.25;;;6.80;;
61704;SDS011;47627;48.078;11.522;2023-05-20T14:55:40;7.40;;;6.70;;
61704;SDS011;47627;48.078;11.522;2023-05-20T14:58:05;8.23;;;6.77;;
61704;SDS011;47627;48.078;11.522;2023-05-20T15:00:30;7.22;;;6.15;;
61704;SDS011;47627;48.078;11.522;2023-05-20T15:02:56;7.25;;;6.53;;
61704;SDS011;47627;48.078;11.522;2023-05-20T15:05:21;8.05;;;6.55;;
61704;SDS011;47627;48.078;11.522;2023-05-20T15:07:47;8.27;;;6.57;;
61704;SDS011;47627;48.078;11.522;2023-05-20T15:10:12;9.35;;;6.55;;
61704;SDS011;47627;48.078;11.522;2023-05-20T15:12:37;6.97;;;6.28;;
61704;SDS011;47627;48.078;11.522;2023-05-20T15:15:03;7.45;;;6.15;;
61704;SDS011;47627;48.078;11.522;2023-05-20T15:17:28;9.77;;;6.18;;
61704;SDS011;47627;48.078;11.522;2023-05-20T15:19:53;8.18;;;6.25;;
61704;SDS011;47627;48.078;11.522;2023-05-20T15:22:18;7.47;;;6.50;;
61704;SDS011;47627;48.078;11.522;2023-05-20T15:24:44;8.93;;;6.45;;
61704;SDS011;47627;48.078;11.522;2023-05-20T15:27:10;7.88;;;7.07;;
61704;SDS011;47627;48.078;11.522;2023-05-20T15:29:35;9.82;;;6.93;;
61704;SDS011;47627;48.078;11.522;2023-05-20T15:32:00;7.15;;;6.45;;
61704;SDS011;47627;48.078;11.522;2023-05-20T15:34:26;7.70;;;6.90;;
61704;SDS011;47627;48.078;11.522;2023-05-20T15:36:51;12.63;;;7.22;;
61704;SDS011;47627;48.078;11.522;2023-05-20T15:39:16;11.07;;;8.75;;
61704;SDS011;47627;48.078;11.522;2023-05-20T15:41:41;11.20;;;6.80;;
61704;SDS011;47627;48.078;11.522;2023-05-20T15:44:07;9.30;;;6.68;;
61704;SDS011;47627;48.078;11.522;2023-05-20T15:46:32;7.38;;;6.53;;
61704;SDS011;47627;48.078;11.522;2023-05-20T15:48:57;10.07;;;6.70;;
61704;SDS011;47627;48.078;11.522;2023-05-20T15:51:23;7.25;;;6.30;;
61704;SDS011;47627;48.078;11.522;2023-05-20T15:53:48;8.20;;;6.78;;
61704;SDS011;47627;48.078;11.522;2023-05-20T15:56:13;6.93;;;6.10;;
61704;SDS011;47627;48.078;11.522;2023-05-20T15:58:38;7.32;;;6.63;;
61704;SDS011;47627;48.078;11.522;2023-05-20T16:01:04;7.22;;;6.43;;
61704;SDS011;47627;48.078;11.522;2023-05-20T16:03:29;8.02;;;6.72;;
61704;SDS011;47627;48.078;11.522;2023-05-20T16:05:54;7.88;;;6.35;;
61704;SDS011;47627;48.078;11.522;2023-05-20T16:08:19;7.85;;;6.93;;
61704;SDS011;47627;48.078;11.522;2023-05-20T16:10:47;8.80;;;6.93;;
61704;SDS011;47627;48.078;11.522;2023-05-20T16:13:12;8.35;;;7.10;;
61704;SDS011;47627;48.078;11.522;2023-05-20T16:15:38;7.77;;;6.90;;
61704;SDS011;47627;48.078;11.522;2023-05-20T16:18:03;6.90;;;6.28;;
61704;SDS011;47627;48.078;11.522;2023-05-20T16:20:29;7.70;;;6.90;;
61704;SDS011;47627;48.078;11.522;2023-05-20T16:22:54;8.65;;;6.80;;
61704;SDS011;47627;48.078;11.522;2023-05-20T16:25:19;9.25;;;6.75;;
61704;SDS011;47627;48.078;11.522;2023-05-20T16:27:45;11.30;;;6.80;;
61704;SDS011;47627;48.078;11.522;2023-05-20T16:30:10;9.85;;;7.20;;
61704;SDS011;47627;48.078;11.522;2023-05-20T16:32:36;11.27;;;7.70;;
61704;SDS011;47627;48.078;11.522;2023-05-20T16:35:01;7.55;;;6.68;;
61704;SDS011;47627;48.078;11.522;2023-05-20T16:37:27;9.45;;;7.22;;
61704;SDS011;47627;48.078;11.522;2023-05-20T16:39:52;8.13;;;7.03;;
61704;SDS011;47627;48.078;11.522;2023-05-20T16:42:17;8.47;;;7.60;;
61704;SDS011;47627;48.078;11.522;2023-05-20T16:44:42;8.18;;;7.32;;
61704;SDS011;47627;48.078;11.522;2023-05-20T16:47:08;8.45;;;6.65;;
61704;SDS011;47627;48.078;11.522;2023-05-20T16:49:33;7.70;;;6.90;;
61704;SDS011;47627;48.078;11.522;2023-05-20T16:51:58;8.20;;;6.63;;
61704;SDS011;47627;48.078;11.522;2023-05-20T16:54:24;10.05;;;7.18;;
61704;SDS011;47627;48.078;11.522;2023-05-20T16:56:49;8.02;;;7.22;;
61704;SDS011;47627;48.078;11.522;2023-05-20T16:59:14;9.30;;;7.32;;
61704;SDS011;47627;48.078;11.522;2023-05-20T17:01:41;8.30;;;6.53;;
61704;SDS011;47627;48.078;11.522;2023-05-20T17:04:06;10.55;;;7.20;;
61704;SDS011;47627;48.078;11.522;2023-05-20T17:06:31;7.90;;;7.05;;
61704;SDS011;47627;48.078;11.522;2023-05-20T17:08:58;8.40;;;7.30;;
61704;SDS011;47627;48.078;11.522;2023-05-20T17:35:41;10.25;;;8.05;;
61704;SDS011;47627;48.078;11.522;2023-05-20T17:38:06;8.45;;;7.60;;
61704;SDS011;47627;48.078;11.522;2023-05-20T17:48:37;13.57;;;8.50;;
61704;SDS011;47627;48.078;11.522;2023-05-20T17:51:02;10.10;;;8.25;;
61704;SDS011;47627;48.078;11.522;2023-05-20T17:53:27;11.07;;;8.32;;
61704;SDS011;47627;48.078;11.522;2023-05-20T17:55:53;8.57;;;7.78;;
61704;SDS011;47627;48.078;11.522;2023-05-20T17:58:18;8.82;;;7.65;;
61704;SDS011;47627;48.078;11.522;2023-05-20T18:00:53;12.85;;;7.45;;
61704;SDS011;47627;48.078;11.522;2023-05-20T18:03:19;8.52;;;7.05;;
61704;SDS011;47627;48.078;11.522;2023-05-20T18:05:44;9.98;;;7.57;;
61704;SDS011;47627;48.078;11.522;2023-05-20T18:08:10;9.63;;;7.93;;
61704;SDS011;47627;48.078;11.522;2023-05-20T18:29:29;8.43;;;7.60;;
61704;SDS011;47627;48.078;11.522;2023-05-20T18:31:54;8.73;;;7.50;;
61704;SDS011;47627;48.078;11.522;2023-05-20T18:34:20;8.82;;;7.93;;
61704;SDS011;47627;48.078;11.522;2023-05-20T18:36:45;10.02;;;7.78;;
61704;SDS011;47627;48.078;11.522;2023-05-20T18:39:11;15.00;;;8.43;;
61704;SDS011;47627;48.078;11.522;2023-05-20T18:41:38;9.23;;;7.90;;
61704;SDS011;47627;48.078;11.522;2023-05-20T18:44:03;9.60;;;8.30;;
61704;SDS011;47627;48.078;11.522;2023-05-20T18:46:28;11.45;;;8.52;;
61704;SDS011;47627;48.078;11.522;2023-05-20T18:48:55;12.23;;;8.68;;
61704;SDS011;47627;48.078;11.522;2023-05-20T18:51:20;11.23;;;8.85;;
61704;SDS011;47627;48.078;11.522;2023-05-20T18:53:45;10.68;;;8.50;;
61704;SDS011;47627;48.078;11.522;2023-05-20T18:56:10;10.10;;;8.90;;
61704;SDS011;47627;48.078;11.522;2023-05-20T18:58:36;9.65;;;7.82;;
61704;SDS011;47627;48.078;11.522;2023-05-20T19:19:55;10.90;;;9.57;;
61704;SDS011;47627;48.078;11.522;2023-05-20T19:22:22;11.32;;;8.75;;
61704;SDS011;47627;48.078;11.522;2023-05-20T19:24:47;11.57;;;9.65;;
61704;SDS011;47627;48.078;11.522;2023-05-20T19:27:13;11.43;;;9.17;;
61704;SDS011;47627;48.078;11.522;2023-05-20T19:29:38;11.30;;;9.30;;
61704;SDS011;47627;48.078;11.522;2023-05-20T19:32:03;11.52;;;9.00;;
61704;SDS011;47627;48.078;11.522;2023-05-20T19:34:28;11.43;;;9.95;;
61704;SDS011;47627;48.078;11.522;2023-05-20T19:36:54;10.60;;;9.43;;
61704;SDS011;47627;48.078;11.522;2023-05-20T19:39:20;9.75;;;8.75;;
61704;SDS011;47627;48.078;11.522;2023-05-20T19:41:46;10.57;;;9.38;;
61704;SDS011;47627;48.078;11.522;2023-05-20T19:44:12;13.40;;;10.65;;
61704;SDS011;47627;48.078;11.522;2023-05-20T19:46:37;11.38;;;9.95;;
61704;SDS011;47627;48.078;11.522;2023-05-20T19:49:03;12.00;;;9.15;;
61704;SDS011;47627;48.078;11.522;2023-05-20T19:51:28;10.95;;;9.80;;
61704;SDS011;47627;48.078;11.522;2023-05-20T19:53:53;11.52;;;10.32;;
61704;SDS011;47627;48.078;11.522;2023-05-20T19:56:22;13.68;;;10.45;;
61704;SDS011;47627;48.078;11.522;2023-05-20T19:58:48;12.43;;;11.23;;
61704;SDS011;47627;48.078;11.522;2023-05-20T20:01:13;12.98;;;11.15;;
61704;SDS011;47627;48.078;11.522;2023-05-20T20:03:39;14.57;;;11.70;;
61704;SDS011;47627;48.078;11.522;2023-05-20T20:06:04;13.20;;;11.25;;
61704;SDS011;47627;48.078;11.522;2023-05-20T20:08:29;12.50;;;11.30;;
61704;SDS011;47627;48.078;11.522;2023-05-20T20:10:55;15.20;;;10.95;;
61704;SDS011;47627;48.078;11.522;2023-05-20T20:13:20;13.25;;;11.70;;
61704;SDS011;47627;48.078;11.522;2023-05-20T20:15:45;17.15;;;12.07;;
61704;SDS011;47627;48.078;11.522;2023-05-20T20:18:11;12.60;;;11.30;;
61704;SDS011;47627;48.078;11.522;2023-05-20T20:20:36;12.55;;;11.18;;
61704;SDS011;47627;48.078;11.522;2023-05-20T20:23:07;15.15;;;11.80;;
61704;SDS011;47627;48.078;11.522;2023-05-20T20:25:33;13.80;;;11.30;;
61704;SDS011;47627;48.078;11.522;2023-05-20T20:28:06;15.82;;;12.00;;
61704;SDS011;47627;48.078;11.522;2023-05-20T20:30:31;14.10;;;11.90;;
61704;SDS011;47627;48.078;11.522;2023-05-20T20:32:56;15.57;;;12.45;;
61704;SDS011;47627;48.078;11.522;2023-05-20T20:35:22;15.50;;;11.65;;
61704;SDS011;47627;48.078;11.522;2023-05-20T20:37:50;12.55;;;11.25;;
61704;SDS011;47627;48.078;11.522;2023-05-20T20:40:21;14.10;;;12.60;;
61704;SDS011;47627;48.078;11.522;2023-05-20T20:42:47;14.60;;;12.75;;
61704;SDS011;47627;48.078;11.522;2023-05-20T20:45:13;13.52;;;11.88;;
61704;SDS011;47627;48.078;11.522;2023-05-20T20:47:39;14.63;;;12.00;;
61704;SDS011;47627;48.078;11.522;2023-05-20T20:50:05;15.73;;;12.32;;
61704;SDS011;47627;48.078;11.522;2023-05-20T20:52:31;14.07;;;12.65;;
61704;SDS011;47627;48.078;11.522;2023-05-20T20:54:57;15.82;;;12.05;;
61704;SDS011;47627;48.078;11.522;2023-05-20T20:57:22;13.18;;;11.88;;
61704;SDS011;47627;48.078;11.522;2023-05-20T20:59:49;13.32;;;11.15;;
61704;SDS011;47627;48.078;11.522;2023-05-20T21:02:15;13.60;;;11.77;;
61704;SDS011;47627;48.078;11.522;2023-05-20T21:04:41;13.50;;;11.85;;
61704;SDS011;47627;48.078;11.522;2023-05-20T21:07:07;14.57;;;12.65;;
61704;SDS011;47627;48.078;11.522;2023-05-20T21:09:32;14.82;;;12.65;;
61704;SDS011;47627;48.078;11.522;2023-05-20T21:11:57;14.95;;;11.85;;
61704;SDS011;47627;48.078;11.522;2023-05-20T21:14:24;12.65;;;11.45;;
61704;SDS011;47627;48.078;11.522;2023-05-20T21:16:50;14.85;;;11.85;;
61704;SDS011;47627;48.078;11.522;2023-05-20T21:19:15;13.10;;;11.80;;
61704;SDS011;47627;48.078;11.522;2023-05-20T21:21:40;13.18;;;11.80;;
61704;SDS011;47627;48.078;11.522;2023-05-20T21:24:05;14.02;;;11.55;;
61704;SDS011;47627;48.078;11.522;2023-05-20T21:26:31;17.65;;;12.27;;
61704;SDS011;47627;48.078;11.522;2023-05-20T21:28:56;15.18;;;11.60;;
61704;SDS011;47627;48.078;11.522;2023-05-20T21:31:21;14.32;;;11.45;;
61704;SDS011;47627;48.078;11.522;2023-05-20T21:33:46;14.70;;;12.00;;
61704;SDS011;47627;48.078;11.522;2023-05-20T21:36:11;15.48;;;12.32;;
61704;SDS011;47627;48.078;11.522;2023-05-20T21:38:37;14.48;;;12.13;;
61704;SDS011;47627;48.078;11.522;2023-05-20T21:41:02;15.23;;;12.23;;
61704;SDS011;47627;48.078;11.522;2023-05-20T21:43:28;14.20;;;12.15;;
61704;SDS011;47627;48.078;11.522;2023-05-20T21:45:53;13.73;;;11.50;;
61704;SDS011;47627;48.078;11.522;2023-05-20T21:48:18;14.30;;;12.05;;
61704;SDS011;47627;48.078;11.522;2023-05-20T21:50:43;13.48;;;11.82;;
61704;SDS011;47627;48.078;11.522;2023-05-20T21:53:09;14.48;;;11.85;;
61704;SDS011;47627;48.078;11.522;2023-05-20T21:55:34;13.63;;;11.90;;
61704;SDS011;47627;48.078;11.522;2023-05-20T21:57:59;14.63;;;12.52;;
61704;SDS011;47627;48.078;11.522;2023-05-20T22:00:25;14.98;;;12.77;;
61704;SDS011;47627;48.078;11.522;2023-05-20T22:02:50;14.43;;;12.70;;
